createdAt,value
2023-04-08T00:01:32.984Z,72.93
2023-04-08T00:04:36.416Z,73.30
2023-04-08T00:07:39.649Z,88.60
2023-04-08T00:10:42.766Z,76.53
2023-04-08T00:13:46.640Z,70.20
2023-04-08T00:16:49.856Z,61.15
2023-04-08T00:19:53.564Z,71.73
2023-04-08T00:22:56.723Z,55.00
2023-04-08T00:25:59.921Z,47.33
2023-04-08T00:29:03.302Z,48.38
2023-04-08T00:32:09.521Z,58.95
2023-04-08T00:35:13.647Z,49.27
2023-04-08T00:38:16.842Z,54.80
2023-04-08T00:41:20.343Z,64.00
2023-04-08T00:44:23.506Z,61.55
2023-04-08T00:47:26.986Z,47.95
2023-04-08T00:50:30.252Z,62.30
2023-04-08T00:53:33.493Z,55.92
2023-04-08T00:56:37.468Z,58.25
2023-04-08T00:59:41.121Z,54.50
2023-04-08T01:02:49.137Z,54.60
2023-04-08T01:06:11.809Z,55.45
2023-04-08T01:09:19.949Z,45.10
2023-04-08T01:12:31.725Z,50.80
2023-04-08T01:15:38.419Z,48.47
2023-04-08T01:18:44.536Z,53.03
2023-04-08T01:21:48.461Z,44.42
2023-04-08T01:24:56.661Z,58.10
2023-04-08T01:28:08.139Z,181.48
2023-04-08T01:31:11.749Z,51.20
2023-04-08T01:34:16.892Z,54.15
2023-04-08T01:37:21.337Z,43.85
2023-04-08T01:40:24.912Z,55.58
2023-04-08T01:43:28.716Z,47.95
2023-04-08T01:46:34.356Z,48.20
2023-04-08T01:49:39.808Z,47.92
2023-04-08T01:52:45.943Z,54.45
2023-04-08T01:55:56.550Z,50.70
2023-04-08T01:59:03.003Z,43.55
2023-04-08T02:02:09.937Z,42.50
2023-04-08T02:05:13.261Z,47.95
2023-04-08T02:08:16.509Z,38.88
2023-04-08T02:11:19.754Z,44.42
2023-04-08T02:14:23.687Z,47.25
2023-04-08T02:17:48.320Z,40.20
2023-04-08T02:21:14.373Z,45.57
2023-04-08T02:24:19.210Z,36.80
2023-04-08T02:27:25.633Z,38.15
2023-04-08T02:30:30.647Z,37.80
2023-04-08T02:33:37.765Z,33.42
2023-04-08T02:36:43.235Z,12.52
2023-04-08T02:39:46.410Z,14.63
2023-04-08T02:42:50.126Z,17.58
2023-04-08T02:45:53.834Z,14.70
2023-04-08T02:48:56.986Z,12.35
2023-04-08T02:52:00.261Z,14.55
2023-04-08T02:55:03.830Z,9.43
2023-04-08T02:58:07.107Z,11.48
2023-04-08T03:01:10.351Z,14.57
2023-04-08T03:04:13.690Z,11.80
2023-04-08T03:07:16.959Z,20.17
2023-04-08T03:10:20.086Z,20.58
2023-04-08T03:13:23.316Z,20.70
2023-04-08T03:16:26.814Z,21.40
2023-04-08T03:19:30.094Z,25.92
2023-04-08T03:22:34.135Z,27.27
2023-04-08T03:25:37.375Z,20.43
2023-04-08T03:28:40.868Z,25.27
2023-04-08T03:31:44.385Z,15.38
2023-04-08T03:34:47.661Z,11.63
2023-04-08T03:37:51.069Z,15.35
2023-04-08T03:40:54.235Z,17.52
2023-04-08T03:43:57.561Z,16.55
2023-04-08T03:47:00.892Z,17.83
2023-04-08T03:50:04.152Z,11.80
2023-04-08T03:53:07.494Z,5.72
2023-04-08T03:56:11.060Z,5.55
2023-04-08T03:59:14.267Z,6.60
2023-04-08T04:02:17.468Z,8.63
2023-04-08T04:05:20.747Z,18.63
2023-04-08T04:08:24.105Z,14.30
2023-04-08T04:11:27.901Z,12.23
2023-04-08T04:14:31.233Z,11.02
2023-04-08T04:17:34.426Z,7.88
2023-04-08T04:20:41.302Z,12.82
2023-04-08T04:23:44.454Z,14.13
2023-04-08T04:26:47.616Z,10.80
2023-04-08T04:29:50.870Z,6.80
2023-04-08T04:32:54.093Z,12.27
2023-04-08T04:35:57.475Z,11.43
2023-04-08T04:39:01.051Z,30.80
2023-04-08T04:42:04.410Z,8.82
2023-04-08T04:45:08.224Z,14.23
2023-04-08T04:48:11.762Z,7.90
2023-04-08T04:51:15.279Z,17.20
2023-04-08T04:54:18.710Z,9.77
2023-04-08T04:57:22.664Z,30.80
2023-04-08T05:00:26.205Z,8.50
2023-04-08T05:03:29.411Z,17.33
2023-04-08T05:06:32.622Z,9.88
2023-04-08T05:09:35.932Z,7.35
2023-04-08T05:12:39.436Z,8.80
2023-04-08T05:15:42.770Z,7.63
2023-04-08T05:18:46.649Z,16.63
2023-04-08T05:21:49.796Z,9.47
2023-04-08T05:24:52.906Z,10.70
2023-04-08T05:27:56.739Z,19.73
2023-04-08T05:30:59.928Z,42.33
2023-04-08T05:34:05.745Z,14.82
2023-04-08T05:37:12.049Z,9.77
2023-04-08T05:40:15.756Z,20.20
2023-04-08T05:43:19.313Z,40.35
2023-04-08T05:46:22.655Z,6.10
2023-04-08T05:49:27.101Z,15.27
2023-04-08T05:52:30.286Z,14.35
2023-04-08T05:55:33.656Z,22.13
2023-04-08T05:58:37.202Z,33.30
2023-04-08T06:01:40.641Z,8.45
2023-04-08T06:04:44.092Z,6.13
2023-04-08T06:07:47.769Z,6.60
2023-04-08T06:10:51.933Z,6.65
2023-04-08T06:13:55.414Z,6.47
2023-04-08T06:16:58.720Z,11.07
2023-04-08T06:20:03.039Z,7.35
2023-04-08T06:23:06.493Z,11.85
2023-04-08T06:26:09.820Z,20.88
2023-04-08T06:29:12.970Z,17.23
2023-04-08T06:32:16.511Z,11.43
2023-04-08T06:35:19.790Z,11.85
2023-04-08T06:38:22.957Z,7.28
2023-04-08T06:41:26.294Z,13.27
2023-04-08T06:44:37.226Z,23.52
2023-04-08T06:47:40.502Z,24.25
2023-04-08T06:50:43.747Z,14.77
2023-04-08T06:53:47.376Z,3.97
2023-04-08T06:56:50.509Z,14.57
2023-04-08T06:59:54.213Z,8.55
2023-04-08T07:02:57.525Z,10.90
2023-04-08T07:06:00.717Z,8.27
2023-04-08T07:09:03.867Z,9.18
2023-04-08T07:12:07.114Z,12.23
2023-04-08T07:15:10.922Z,19.75
2023-04-08T07:18:14.278Z,9.63
2023-04-08T07:21:18.717Z,8.00
2023-04-08T07:24:21.836Z,13.50
2023-04-08T07:27:24.967Z,8.18
2023-04-08T07:30:28.503Z,13.68
2023-04-08T07:33:31.896Z,23.50
2023-04-08T07:36:35.272Z,14.57
2023-04-08T07:39:38.408Z,8.93
2023-04-08T07:42:41.573Z,16.73
2023-04-08T07:45:47.246Z,9.50
2023-04-08T07:48:50.999Z,10.25
2023-04-08T07:51:54.361Z,5.73
2023-04-08T07:54:57.574Z,7.78
2023-04-08T07:58:00.766Z,6.75
2023-04-08T08:01:04.272Z,11.45
2023-04-08T08:04:07.570Z,16.42
2023-04-08T08:07:11.117Z,14.65
2023-04-08T08:10:14.306Z,26.20
2023-04-08T08:13:21.828Z,11.82
2023-04-08T08:16:27.977Z,8.75
2023-04-08T08:19:31.373Z,16.70
2023-04-08T08:22:36.658Z,10.13
2023-04-08T08:25:44.982Z,19.67
2023-04-08T08:28:48.198Z,12.35
2023-04-08T08:31:51.331Z,13.95
2023-04-08T08:34:54.447Z,21.48
2023-04-08T08:37:57.946Z,15.00
2023-04-08T08:41:02.440Z,11.25
2023-04-08T08:47:12.692Z,17.25
2023-04-08T08:50:16.346Z,6.13
2023-04-08T08:53:21.254Z,13.10
2023-04-08T08:56:24.436Z,13.77
2023-04-08T08:59:27.636Z,8.52
2023-04-08T09:02:32.844Z,10.52
2023-04-08T09:05:53.889Z,9.43
2023-04-08T09:08:56.978Z,11.43
2023-04-08T09:12:06.857Z,27.80
2023-04-08T09:15:11.112Z,10.55
2023-04-08T09:18:23.928Z,9.45
2023-04-08T09:21:28.036Z,11.65
2023-04-08T09:24:33.112Z,15.13
2023-04-08T09:27:36.976Z,5.90
2023-04-08T09:30:40.207Z,12.20
2023-04-08T09:33:43.343Z,17.35
2023-04-08T09:36:46.845Z,7.72
2023-04-08T09:39:50.406Z,7.70
2023-04-08T09:42:57.020Z,6.38
2023-04-08T09:46:05.028Z,8.68
2023-04-08T09:49:27.953Z,7.95
2023-04-08T09:52:46.010Z,11.07
2023-04-08T09:55:57.893Z,17.08
2023-04-08T09:59:10.509Z,21.20
2023-04-08T10:02:20.787Z,10.75
2023-04-08T10:05:26.380Z,15.07
2023-04-08T10:08:31.757Z,14.90
2023-04-08T10:11:36.840Z,6.68
2023-04-08T10:14:40.454Z,5.35
2023-04-08T10:17:43.600Z,19.27
2023-04-08T10:20:48.099Z,18.60
2023-04-08T10:23:57.002Z,11.15
2023-04-08T10:27:00.298Z,12.40
2023-04-08T10:30:03.731Z,10.05
2023-04-08T10:33:40.800Z,4.80
2023-04-08T10:36:44.929Z,19.08
2023-04-08T10:39:53.707Z,10.00
2023-04-08T10:42:57.688Z,8.52
2023-04-08T10:46:01.101Z,12.23
2023-04-08T10:49:04.414Z,13.68
2023-04-08T10:52:10.536Z,11.38
2023-04-08T10:55:13.719Z,15.30
2023-04-08T10:58:18.067Z,30.38
2023-04-08T11:01:22.136Z,17.08
2023-04-08T11:04:26.479Z,26.00
2023-04-08T11:07:29.726Z,14.98
2023-04-08T11:10:39.444Z,9.77
2023-04-08T11:13:52.080Z,15.13
2023-04-08T11:16:56.754Z,15.35
2023-04-08T11:20:03.282Z,11.73
2023-04-08T11:23:12.467Z,12.60
2023-04-08T11:26:16.519Z,18.50
2023-04-08T11:29:20.231Z,20.40
2023-04-08T11:32:24.341Z,8.95
2023-04-08T11:35:31.772Z,11.70
2023-04-08T11:38:39.661Z,13.80
2023-04-08T11:41:42.817Z,13.27
2023-04-08T11:44:46.082Z,13.50
2023-04-08T11:47:50.009Z,16.55
2023-04-08T11:51:13.344Z,6.80
2023-04-08T11:54:28.331Z,5.35
2023-04-08T11:57:32.388Z,4.72
2023-04-08T12:00:35.693Z,5.50
2023-04-08T12:03:39.081Z,5.85
2023-04-08T12:06:44.257Z,13.35
2023-04-08T12:12:50.289Z,20.70
2023-04-08T12:15:53.735Z,12.45
2023-04-08T12:18:56.868Z,17.95
2023-04-08T12:22:00.011Z,8.52
2023-04-08T12:25:04.596Z,6.70
2023-04-08T12:28:07.879Z,7.45
2023-04-08T12:31:11.072Z,17.23
2023-04-08T12:34:14.213Z,18.70
2023-04-08T12:37:17.541Z,9.00
2023-04-08T12:40:21.340Z,16.85
2023-04-08T12:43:25.143Z,6.38
2023-04-08T12:46:29.145Z,15.68
2023-04-08T12:49:39.561Z,7.03
2023-04-08T12:52:51.870Z,9.55
2023-04-08T12:55:57.964Z,22.27
2023-04-08T12:59:02.052Z,18.23
2023-04-08T13:02:05.381Z,8.25
2023-04-08T13:05:09.080Z,18.02
2023-04-08T13:08:12.967Z,24.25
2023-04-08T13:11:16.262Z,16.27
2023-04-08T13:14:22.620Z,18.75
2023-04-08T13:17:28.585Z,28.02
2023-04-08T13:20:31.914Z,33.35
2023-04-08T13:23:35.541Z,24.73
2023-04-08T13:26:39.020Z,31.80
2023-04-08T13:29:42.309Z,19.20
2023-04-08T13:32:45.580Z,7.30
2023-04-08T13:35:49.325Z,8.98
2023-04-08T13:38:55.534Z,34.33
2023-04-08T13:41:59.228Z,26.00
2023-04-08T13:45:02.745Z,10.30
2023-04-08T13:48:06.290Z,11.40
2023-04-08T13:51:09.831Z,6.40
2023-04-08T13:54:13.024Z,8.07
2023-04-08T13:57:16.424Z,12.48
2023-04-08T14:00:19.743Z,10.68
2023-04-08T14:03:23.057Z,12.77
2023-04-08T14:06:27.485Z,9.85
2023-04-08T14:09:31.396Z,8.82
2023-04-08T14:12:37.872Z,8.15
2023-04-08T14:15:41.339Z,12.02
2023-04-08T14:18:45.117Z,7.72
2023-04-08T14:21:48.541Z,7.40
2023-04-08T14:24:51.983Z,8.10
2023-04-08T14:27:58.627Z,9.68
2023-04-08T14:31:04.643Z,8.20
2023-04-08T14:34:08.267Z,13.60
2023-04-08T14:37:12.861Z,6.95
2023-04-08T14:41:05.465Z,18.25
2023-04-08T14:44:41.946Z,13.10
2023-04-08T14:47:56.907Z,7.90
2023-04-08T14:51:19.315Z,5.22
2023-04-08T14:54:52.008Z,9.20
2023-04-08T14:58:14.706Z,11.10
2023-04-08T15:01:51.080Z,7.45
2023-04-08T15:05:04.040Z,8.32
2023-04-08T15:08:23.532Z,12.23
2023-04-08T15:11:34.312Z,7.32
2023-04-08T15:14:43.739Z,8.57
2023-04-08T15:18:01.814Z,8.82
2023-04-08T15:21:15.122Z,3.28
2023-04-08T15:24:23.660Z,5.03
2023-04-08T15:27:49.804Z,4.47
2023-04-08T15:30:59.470Z,4.78
2023-04-08T15:34:28.605Z,3.55
2023-04-08T15:37:48.255Z,7.90
2023-04-08T15:40:59.415Z,7.38
2023-04-08T15:44:09.783Z,4.28
2023-04-08T15:47:23.334Z,3.85
2023-04-08T15:50:37.250Z,5.30
2023-04-08T15:53:59.727Z,4.63
2023-04-08T15:57:30.048Z,6.00
2023-04-08T16:00:37.230Z,15.15
2023-04-08T16:03:42.208Z,20.15
2023-04-08T16:07:05.526Z,33.30
2023-04-08T16:10:25.547Z,27.45
2023-04-08T16:17:05.953Z,8.80
2023-04-08T16:20:32.524Z,13.25
2023-04-08T16:23:43.265Z,14.32
2023-04-08T16:26:47.734Z,15.35
2023-04-08T16:30:21.738Z,8.40
2023-04-08T16:34:04.123Z,16.90
2023-04-08T16:37:14.711Z,12.63
2023-04-08T16:40:41.187Z,10.57
2023-04-08T16:51:14.595Z,6.88
2023-04-08T16:54:20.589Z,5.28
2023-04-08T16:57:46.418Z,6.18
2023-04-08T17:01:14.384Z,10.15
2023-04-08T17:04:24.808Z,6.22
2023-04-08T17:07:32.971Z,7.97
2023-04-08T17:10:41.702Z,5.10
2023-04-08T17:13:49.526Z,6.07
2023-04-08T17:16:59.664Z,11.43
2023-04-08T17:20:06.881Z,10.57
2023-04-08T17:23:25.110Z,14.63
2023-04-08T17:27:00.709Z,14.57
2023-04-08T17:30:11.569Z,7.32
2023-04-08T17:33:29.460Z,21.27
2023-04-08T17:36:39.529Z,4.75
2023-04-08T17:39:50.807Z,13.93
2023-04-08T17:43:00.168Z,8.80
2023-04-08T17:46:12.653Z,6.43
2023-04-08T17:49:29.750Z,4.93
2023-04-08T17:56:13.232Z,4.30
2023-04-08T17:59:52.795Z,4.00
2023-04-08T18:03:13.567Z,5.32
2023-04-08T18:10:14.737Z,4.18
2023-04-08T18:13:26.348Z,4.80
2023-04-08T18:16:59.879Z,3.72
2023-04-08T18:20:20.833Z,3.42
2023-04-08T18:23:28.714Z,5.25
2023-04-08T18:26:54.296Z,6.18
2023-04-08T18:30:15.780Z,4.83
2023-04-08T18:33:30.193Z,4.55
2023-04-08T18:36:42.249Z,3.95
2023-04-08T18:43:44.916Z,3.47
2023-04-08T18:46:59.134Z,5.10
2023-04-08T18:50:32.758Z,5.40
2023-04-08T18:54:18.311Z,5.75
2023-04-08T18:57:47.691Z,4.50
2023-04-08T19:05:23.008Z,4.82
2023-04-08T19:08:48.405Z,2.78
2023-04-08T19:12:03.069Z,1.33
2023-04-08T19:15:13.359Z,1.63
2023-04-08T19:18:19.034Z,4.95
2023-04-08T19:21:32.658Z,3.65
2023-04-08T19:24:41.849Z,4.97
2023-04-08T19:28:01.384Z,9.20
2023-04-08T19:31:31.107Z,5.00
2023-04-08T19:38:08.295Z,2.45
2023-04-08T19:41:33.329Z,3.72
2023-04-08T19:44:44.585Z,2.53
2023-04-08T19:47:52.734Z,6.18
2023-04-08T19:51:03.969Z,8.32
2023-04-08T19:54:20.548Z,3.92
2023-04-08T19:57:37.211Z,2.58
2023-04-08T20:04:10.311Z,3.30
2023-04-08T20:10:47.018Z,1.92
2023-04-08T20:14:01.701Z,2.30
2023-04-08T20:17:09.168Z,2.90
2023-04-08T20:20:18.363Z,3.20
2023-04-08T20:23:24.044Z,2.38
2023-04-08T20:26:36.327Z,2.92
2023-04-08T20:29:48.825Z,3.05
2023-04-08T20:32:58.153Z,9.23
2023-04-08T20:36:17.792Z,14.27
2023-04-08T20:39:30.946Z,10.98
2023-04-08T20:42:50.488Z,12.90
2023-04-08T20:45:58.893Z,13.27
2023-04-08T20:49:11.933Z,6.78
2023-04-08T20:52:16.333Z,4.57
2023-04-08T20:55:28.853Z,5.45
2023-04-08T20:58:38.267Z,5.32
2023-04-08T21:01:47.097Z,6.00
2023-04-08T21:04:56.411Z,3.30
2023-04-08T21:08:18.151Z,3.28
2023-04-08T21:11:32.595Z,4.65
2023-04-08T21:14:43.391Z,3.97
2023-04-08T21:17:56.183Z,2.40
2023-04-08T21:21:10.149Z,3.70
2023-04-08T21:24:15.658Z,2.53
2023-04-08T21:27:30.558Z,2.97
2023-04-08T21:30:36.216Z,2.08
2023-04-08T21:34:03.887Z,2.60
2023-04-08T21:37:11.497Z,3.90
2023-04-08T21:40:20.225Z,2.83
2023-04-08T21:43:25.965Z,3.83
2023-04-08T21:46:32.648Z,4.03
2023-04-08T21:49:42.856Z,7.53
2023-04-08T21:53:02.393Z,2.70
2023-04-08T21:56:10.279Z,1.55
2023-04-08T21:59:33.124Z,6.00
2023-04-08T22:03:04.338Z,2.55
2023-04-08T22:06:29.182Z,2.22
2023-04-08T22:09:37.235Z,2.80
2023-04-08T22:12:45.836Z,1.85
2023-04-08T22:15:54.537Z,6.28
2023-04-08T22:19:08.793Z,2.58
2023-04-08T22:22:49.022Z,5.30
2023-04-08T22:26:04.819Z,2.92
2023-04-08T22:29:52.079Z,2.70
2023-04-08T22:33:12.283Z,2.53
2023-04-08T22:36:32.258Z,4.78
2023-04-08T22:40:14.685Z,3.22
2023-04-08T22:43:35.109Z,4.80
2023-04-08T22:47:40.610Z,7.13
2023-04-08T22:51:09.560Z,3.22
2023-04-08T22:54:36.518Z,7.20
2023-04-08T22:58:20.387Z,20.27
2023-04-08T23:01:48.581Z,22.65
2023-04-08T23:05:19.921Z,27.58
2023-04-08T23:08:54.222Z,28.17
2023-04-08T23:12:03.812Z,34.28
2023-04-08T23:15:28.225Z,41.28
2023-04-08T23:18:34.787Z,34.70
2023-04-08T23:25:29.267Z,41.40
2023-04-08T23:28:47.265Z,34.28
2023-04-08T23:32:23.779Z,32.20
2023-04-08T23:35:47.925Z,58.42
2023-04-08T23:39:12.706Z,39.00
2023-04-08T23:42:16.249Z,26.00
2023-04-08T23:45:19.589Z,31.35
2023-04-08T23:48:22.770Z,29.45
2023-04-08T23:51:26.570Z,32.30
2023-04-08T23:54:34.423Z,85.18
2023-04-08T23:57:37.522Z,34.55
